createdAt,value
2018-09-25T00:00:32.838Z,102069
2018-09-25T00:01:38.396Z,102061
2018-09-25T00:02:43.618Z,102063
2018-09-25T00:03:48.891Z,102066
2018-09-25T00:04:54.115Z,102064
2018-09-25T00:05:59.064Z,102069
2018-09-25T00:07:04.280Z,102072
2018-09-25T00:08:09.452Z,102061
2018-09-25T00:09:14.895Z,102061
2018-09-25T00:10:20.785Z,102075
2018-09-25T00:11:25.888Z,102058
2018-09-25T00:12:31.824Z,102063
2018-09-25T00:13:36.699Z,102066
2018-09-25T00:14:42.192Z,102066
2018-09-25T00:15:47.618Z,102055
2018-09-25T00:16:52.775Z,102066
2018-09-25T00:17:58.255Z,102066
2018-09-25T00:19:03.721Z,102064
2018-09-25T00:20:09.157Z,102072
2018-09-25T00:21:14.026Z,102066
2018-09-25T00:22:19.426Z,102072
2018-09-25T00:23:24.872Z,102066
2018-09-25T00:24:30.455Z,102066
2018-09-25T00:25:35.321Z,102066
2018-09-25T00:26:40.471Z,102058
2018-09-25T00:27:45.874Z,102066
2018-09-25T00:28:50.823Z,102058
2018-09-25T00:29:56.008Z,102081
2018-09-25T00:31:01.694Z,102069
2018-09-25T00:32:06.846Z,102072
2018-09-25T00:33:12.286Z,102069
2018-09-25T00:34:17.220Z,102069
2018-09-25T00:35:22.647Z,102072
2018-09-25T00:36:28.522Z,102058
2018-09-25T00:37:33.981Z,102066
2018-09-25T00:38:39.152Z,102060
2018-09-25T00:39:44.362Z,102072
2018-09-25T00:40:48.947Z,102069
2018-09-25T00:41:54.406Z,102060
2018-09-25T00:43:00.085Z,102060
2018-09-25T00:44:04.951Z,102069
2018-09-25T00:45:10.481Z,102072
2018-09-25T00:46:15.884Z,102063
2018-09-25T00:47:21.322Z,102072
2018-09-25T00:48:27.073Z,102066
2018-09-25T00:49:32.237Z,102075
2018-09-25T00:50:37.155Z,102078
2018-09-25T00:51:42.853Z,102075
2018-09-25T00:52:48.282Z,102072
2018-09-25T00:53:53.517Z,102072
2018-09-25T00:54:59.246Z,102084
2018-09-25T00:56:04.409Z,102084
2018-09-25T00:57:09.563Z,102081
2018-09-25T00:58:15.274Z,102072
2018-09-25T00:59:20.129Z,102075
2018-09-25T01:00:25.010Z,102081
2018-09-25T01:01:45.564Z,102075
2018-09-25T01:02:50.996Z,102081
2018-09-25T01:03:56.854Z,102075
2018-09-25T01:05:01.430Z,102072
2018-09-25T01:06:06.309Z,102087
2018-09-25T01:07:11.879Z,102072
2018-09-25T01:08:17.307Z,102078
2018-09-25T01:09:22.763Z,102072
2018-09-25T01:10:27.927Z,102066
2018-09-25T01:11:33.072Z,102072
2018-09-25T01:12:38.753Z,102084
2018-09-25T01:13:43.935Z,102084
2018-09-25T01:14:48.801Z,102087
2018-09-25T01:15:54.517Z,102089
2018-09-25T01:16:59.661Z,102078
2018-09-25T01:18:04.523Z,102075
2018-09-25T01:19:10.117Z,102084
2018-09-25T01:20:15.846Z,102078
2018-09-25T01:21:21.296Z,102089
2018-09-25T01:22:27.171Z,102084
2018-09-25T01:23:32.313Z,102087
2018-09-25T01:24:37.443Z,102084
2018-09-25T01:25:43.093Z,102089
2018-09-25T01:26:48.001Z,102089
2018-09-25T01:27:53.755Z,102087
2018-09-25T01:28:59.215Z,102084
2018-09-25T01:30:04.389Z,102098
2018-09-25T01:31:09.789Z,102084
2018-09-25T01:32:14.407Z,102095
2018-09-25T01:33:19.564Z,102092
2018-09-25T01:34:25.015Z,102089
2018-09-25T01:35:29.880Z,102101
2018-09-25T01:36:35.320Z,102092
2018-09-25T01:37:40.843Z,102089
2018-09-25T01:38:46.275Z,102095
2018-09-25T01:39:51.668Z,102084
2018-09-25T01:40:57.093Z,102092
2018-09-25T01:42:01.971Z,102089
2018-09-25T01:43:07.099Z,102092
2018-09-25T01:44:12.614Z,102098
2018-09-25T01:45:17.486Z,102095
2018-09-25T01:46:23.077Z,102101
2018-09-25T01:47:28.231Z,102092
2018-09-25T01:48:34.028Z,102092
2018-09-25T01:49:39.535Z,102098
2018-09-25T01:50:44.455Z,102086
2018-09-25T01:51:50.148Z,102092
2018-09-25T01:52:55.114Z,102092
2018-09-25T01:54:00.274Z,102092
2018-09-25T01:55:05.520Z,102095
2018-09-25T01:56:10.714Z,102089
2018-09-25T01:57:15.905Z,102086
2018-09-25T01:58:21.435Z,102095
2018-09-25T01:59:26.322Z,102098
2018-09-25T02:00:31.432Z,102095
2018-09-25T02:01:36.855Z,102101
2018-09-25T02:02:42.308Z,102104
2018-09-25T02:03:48.035Z,102107
2018-09-25T02:04:53.537Z,102095
2018-09-25T02:05:59.047Z,102104
2018-09-25T02:07:04.828Z,102101
2018-09-25T02:08:10.020Z,102104
2018-09-25T02:09:15.470Z,102104
2018-09-25T02:10:20.979Z,102107
2018-09-25T02:11:26.155Z,102098
2018-09-25T02:12:31.281Z,102098
2018-09-25T02:13:36.876Z,102104
2018-09-25T02:14:42.051Z,102110
2018-09-25T02:15:47.732Z,102113
2018-09-25T02:16:52.941Z,102101
2018-09-25T02:17:58.095Z,102107
2018-09-25T02:19:03.294Z,102104
2018-09-25T02:20:08.798Z,102101
2018-09-25T02:21:14.040Z,102113
2018-09-25T02:22:19.287Z,102113
2018-09-25T02:23:24.430Z,102118
2018-09-25T02:24:30.339Z,102110
2018-09-25T02:25:35.528Z,102118
2018-09-25T02:26:41.049Z,102113
2018-09-25T02:27:46.162Z,102121
2018-09-25T02:28:51.034Z,102113
2018-09-25T02:29:56.485Z,102113
2018-09-25T02:31:01.712Z,102118
2018-09-25T02:32:06.688Z,102113
2018-09-25T02:33:12.165Z,102110
2018-09-25T02:34:17.709Z,102118
2018-09-25T02:35:23.185Z,102113
2018-09-25T02:36:29.112Z,102118
2018-09-25T02:37:34.571Z,102126
2018-09-25T02:38:39.995Z,102118
2018-09-25T02:39:44.549Z,102126
2018-09-25T02:40:50.062Z,102110
2018-09-25T02:41:55.514Z,102115
2018-09-25T02:43:00.665Z,102121
2018-09-25T02:44:05.810Z,102115
2018-09-25T02:45:11.264Z,102118
2018-09-25T02:46:16.074Z,102129
2018-09-25T02:47:20.949Z,102112
2018-09-25T02:48:26.767Z,102129
2018-09-25T02:49:31.903Z,102126
2018-09-25T02:50:37.065Z,102118
2018-09-25T02:51:42.765Z,102121
2018-09-25T02:52:48.198Z,102132
2018-09-25T02:53:53.354Z,102126
2018-09-25T02:54:58.904Z,102138
2018-09-25T02:56:04.104Z,102132
2018-09-25T02:57:09.285Z,102135
2018-09-25T02:58:14.788Z,102135
2018-09-25T02:59:19.652Z,102126
2018-09-25T03:00:24.548Z,102121
2018-09-25T03:01:31.133Z,102118
2018-09-25T03:02:36.003Z,102152
2018-09-25T03:03:41.168Z,102135
2018-09-25T03:04:45.811Z,102138
2018-09-25T03:05:51.156Z,102144
2018-09-25T03:06:56.991Z,102126
2018-09-25T03:08:02.193Z,102135
2018-09-25T03:09:07.393Z,102132
2018-09-25T03:10:12.638Z,102132
2018-09-25T03:11:18.097Z,102126
2018-09-25T03:12:23.056Z,102138
2018-09-25T03:13:28.586Z,102135
2018-09-25T03:14:33.739Z,102135
2018-09-25T03:15:39.458Z,102143
2018-09-25T03:16:44.963Z,102135
2018-09-25T03:17:50.401Z,102140
2018-09-25T03:18:55.985Z,102143
2018-09-25T03:20:00.624Z,102143
2018-09-25T03:21:05.544Z,102149
2018-09-25T03:22:10.966Z,102140
2018-09-25T03:23:16.113Z,102137
2018-09-25T03:24:21.302Z,102149
2018-09-25T03:25:41.449Z,102146
2018-09-25T03:26:46.693Z,102155
2018-09-25T03:27:51.826Z,102152
2018-09-25T03:28:57.340Z,102137
2018-09-25T03:30:02.516Z,102146
2018-09-25T03:31:07.903Z,102143
2018-09-25T03:32:13.161Z,102140
2018-09-25T03:33:17.751Z,102149
2018-09-25T03:34:23.497Z,102137
2018-09-25T03:35:28.361Z,102149
2018-09-25T03:36:33.804Z,102152
2018-09-25T03:37:39.021Z,102149
2018-09-25T03:38:43.597Z,102155
2018-09-25T03:39:49.453Z,102143
2018-09-25T03:40:54.315Z,102155
2018-09-25T03:41:59.761Z,102146
2018-09-25T03:43:05.462Z,102155
2018-09-25T03:44:10.628Z,102146
2018-09-25T03:45:15.768Z,102155
2018-09-25T03:46:20.952Z,102158
2018-09-25T03:47:26.445Z,102146
2018-09-25T03:48:32.273Z,102155
2018-09-25T03:49:37.818Z,102155
2018-09-25T03:50:42.774Z,102158
2018-09-25T03:51:48.176Z,102160
2018-09-25T03:52:52.568Z,102155
2018-09-25T03:53:57.303Z,102160
2018-09-25T03:55:02.481Z,102155
2018-09-25T03:56:07.116Z,102149
2018-09-25T03:57:12.264Z,102152
2018-09-25T03:58:17.697Z,102160
2018-09-25T03:59:23.195Z,102158
2018-09-25T04:00:29.072Z,102154
2018-09-25T04:01:33.936Z,102157
2018-09-25T04:02:39.113Z,102149
2018-09-25T04:03:44.307Z,102154
2018-09-25T04:04:49.248Z,102157
2018-09-25T04:05:54.176Z,102157
2018-09-25T04:07:00.799Z,102154
2018-09-25T04:08:06.283Z,102160
2018-09-25T04:09:11.761Z,102140
2018-09-25T04:10:17.438Z,102151
2018-09-25T04:11:22.592Z,102151
2018-09-25T04:12:27.978Z,102154
2018-09-25T04:13:33.414Z,102157
2018-09-25T04:14:38.615Z,102151
2018-09-25T04:15:44.374Z,102157
2018-09-25T04:16:49.597Z,102154
2018-09-25T04:17:54.747Z,102151
2018-09-25T04:19:00.589Z,102151
2018-09-25T04:20:05.176Z,102151
2018-09-25T04:21:09.881Z,102162
2018-09-25T04:22:15.358Z,102150
2018-09-25T04:23:20.508Z,102162
2018-09-25T04:24:40.748Z,102165
2018-09-25T04:25:46.274Z,102162
2018-09-25T04:26:51.700Z,102167
2018-09-25T04:27:57.388Z,102161
2018-09-25T04:29:01.987Z,102173
2018-09-25T04:30:06.905Z,102170
2018-09-25T04:31:12.682Z,102167
2018-09-25T04:32:17.640Z,102175
2018-09-25T04:33:22.786Z,102170
2018-09-25T04:34:28.761Z,102175
2018-09-25T04:35:34.277Z,102175
2018-09-25T04:36:39.105Z,102172
2018-09-25T04:37:44.272Z,102169
2018-09-25T04:38:49.182Z,102181
2018-09-25T04:39:54.915Z,102184
2018-09-25T04:41:00.066Z,102186
2018-09-25T04:42:05.551Z,102189
2018-09-25T04:43:10.786Z,102189
2018-09-25T04:44:16.217Z,102186
2018-09-25T04:45:21.790Z,102183
2018-09-25T04:46:41.291Z,102183
2018-09-25T04:47:46.645Z,102191
2018-09-25T04:48:52.620Z,102186
2018-09-25T04:49:57.826Z,102197
2018-09-25T04:51:02.974Z,102194
2018-09-25T04:52:08.658Z,102199
2018-09-25T04:53:13.883Z,102191
2018-09-25T04:54:19.356Z,102189
2018-09-25T04:55:25.182Z,102199
2018-09-25T04:56:30.465Z,102196
2018-09-25T04:57:36.072Z,102196
2018-09-25T04:58:41.305Z,102191
2018-09-25T04:59:46.491Z,102196
2018-09-25T05:00:52.096Z,102185
2018-09-25T05:01:57.244Z,102177
2018-09-25T05:03:01.924Z,102193
2018-09-25T05:04:07.349Z,102188
2018-09-25T05:05:12.507Z,102193
2018-09-25T05:06:17.421Z,102193
2018-09-25T05:07:22.747Z,102193
2018-09-25T05:08:27.722Z,102199
2018-09-25T05:09:33.325Z,102202
2018-09-25T05:10:38.479Z,102191
2018-09-25T05:11:43.723Z,102193
2018-09-25T05:12:49.004Z,102196
2018-09-25T05:13:54.140Z,102204
2018-09-25T05:14:59.341Z,102196
2018-09-25T05:16:04.818Z,102201
2018-09-25T05:17:09.990Z,102204
2018-09-25T05:18:15.715Z,102201
2018-09-25T05:19:21.874Z,102198
2018-09-25T05:20:27.401Z,102201
2018-09-25T05:21:32.114Z,102213
2018-09-25T05:22:37.291Z,102204
2018-09-25T05:23:42.853Z,102216
2018-09-25T05:24:49.073Z,102213
2018-09-25T05:25:54.392Z,102210
2018-09-25T05:26:59.312Z,102221
2018-09-25T05:28:04.993Z,102224
2018-09-25T05:29:10.207Z,102224
2018-09-25T05:30:15.691Z,102218
2018-09-25T05:31:21.369Z,102227
2018-09-25T05:32:26.599Z,102224
2018-09-25T05:33:32.316Z,102221
2018-09-25T05:34:37.188Z,102215
2018-09-25T05:35:42.645Z,102221
2018-09-25T05:36:48.424Z,102215
2018-09-25T05:37:53.849Z,102212
2018-09-25T05:38:59.076Z,102210
2018-09-25T05:40:04.216Z,102218
2018-09-25T05:41:09.370Z,102207
2018-09-25T05:42:14.801Z,102215
2018-09-25T05:43:20.377Z,102218
2018-09-25T05:44:25.532Z,102218
2018-09-25T05:45:31.195Z,102224
2018-09-25T05:46:36.393Z,102215
2018-09-25T05:47:41.536Z,102209
2018-09-25T05:48:47.598Z,102215
2018-09-25T05:49:53.663Z,102212
2018-09-25T05:50:58.579Z,102206
2018-09-25T05:52:04.117Z,102227
2018-09-25T05:53:09.664Z,102209
2018-09-25T05:54:15.101Z,102206
2018-09-25T05:55:20.609Z,102212
2018-09-25T05:56:25.855Z,102212
2018-09-25T05:57:31.426Z,102215
2018-09-25T05:58:36.045Z,102215
2018-09-25T05:59:41.003Z,102206
2018-09-25T06:00:46.554Z,102203
2018-09-25T06:01:51.745Z,102209
2018-09-25T06:02:57.188Z,102206
2018-09-25T06:04:02.331Z,102206
2018-09-25T06:05:07.556Z,102215
2018-09-25T06:06:12.723Z,102209
2018-09-25T06:07:18.475Z,102215
2018-09-25T06:08:23.678Z,102206
2018-09-25T06:09:29.743Z,102203
2018-09-25T06:10:35.260Z,102215
2018-09-25T06:11:40.767Z,102221
2018-09-25T06:12:46.267Z,102218
2018-09-25T06:13:51.127Z,102212
2018-09-25T06:14:56.394Z,102212
2018-09-25T06:16:01.905Z,102223
2018-09-25T06:17:05.925Z,102221
2018-09-25T06:18:10.788Z,102218
2018-09-25T06:19:15.676Z,102226
2018-09-25T06:20:21.102Z,102215
2018-09-25T06:21:41.426Z,102232
2018-09-25T06:22:46.880Z,102226
2018-09-25T06:23:52.372Z,102229
2018-09-25T06:24:58.041Z,102232
2018-09-25T06:26:03.217Z,102223
2018-09-25T06:27:08.740Z,102232
2018-09-25T06:28:14.480Z,102223
2018-09-25T06:29:19.722Z,102244
2018-09-25T06:31:45.122Z,102229
2018-09-25T06:32:50.037Z,102235
2018-09-25T06:33:55.297Z,102244
2018-09-25T06:35:00.454Z,102241
2018-09-25T06:36:06.310Z,102229
2018-09-25T06:37:12.198Z,102238
2018-09-25T06:38:17.335Z,102229
2018-09-25T06:39:22.914Z,102252
2018-09-25T06:40:28.456Z,102235
2018-09-25T06:41:33.635Z,102235
2018-09-25T06:42:39.136Z,102244
2018-09-25T06:43:44.306Z,102238
2018-09-25T06:44:49.459Z,102244
2018-09-25T06:45:55.263Z,102241
2018-09-25T06:47:00.402Z,102249
2018-09-25T06:48:05.318Z,102238
2018-09-25T06:49:10.984Z,102252
2018-09-25T06:50:16.168Z,102258
2018-09-25T06:51:21.316Z,102249
2018-09-25T06:52:41.416Z,102249
2018-09-25T06:53:46.598Z,102255
2018-09-25T06:54:53.045Z,102246
2018-09-25T06:55:58.634Z,102252
2018-09-25T06:57:04.061Z,102249
2018-09-25T06:58:09.597Z,102246
2018-09-25T06:59:15.025Z,102255
2018-09-25T07:00:20.285Z,102246
2018-09-25T07:01:25.811Z,102258
2018-09-25T07:02:30.968Z,102258
2018-09-25T07:03:36.378Z,102264
2018-09-25T07:04:41.558Z,102255
2018-09-25T07:05:46.983Z,102252
2018-09-25T07:06:52.609Z,102258
2018-09-25T07:07:58.127Z,102267
2018-09-25T07:09:03.656Z,102258
2018-09-25T07:10:10.035Z,102255
2018-09-25T07:11:15.825Z,102258
2018-09-25T07:12:20.984Z,102258
2018-09-25T07:13:26.660Z,102264
2018-09-25T07:14:31.549Z,102264
2018-09-25T07:15:36.948Z,102258
2018-09-25T07:16:42.135Z,102261
2018-09-25T07:17:47.322Z,102261
2018-09-25T07:18:52.982Z,102259
2018-09-25T07:19:58.147Z,102256
2018-09-25T07:21:02.731Z,102261
2018-09-25T07:22:08.182Z,102279
2018-09-25T07:23:13.516Z,102267
2018-09-25T07:24:18.918Z,102282
2018-09-25T07:25:24.365Z,102276
2018-09-25T07:26:29.516Z,102265
2018-09-25T07:27:35.306Z,102282
2018-09-25T07:28:40.439Z,102282
2018-09-25T07:29:45.956Z,102276
2018-09-25T07:30:51.441Z,102273
2018-09-25T07:31:56.694Z,102288
2018-09-25T07:33:01.701Z,102279
2018-09-25T07:34:06.290Z,102291
2018-09-25T07:35:10.947Z,102285
2018-09-25T07:36:15.937Z,102285
2018-09-25T07:37:21.810Z,102285
2018-09-25T07:38:26.967Z,102282
2018-09-25T07:39:32.859Z,102294
2018-09-25T07:40:38.331Z,102285
2018-09-25T07:41:43.477Z,102294
2018-09-25T07:42:48.645Z,102291
2018-09-25T07:43:53.881Z,102297
2018-09-25T07:44:59.092Z,102300
2018-09-25T07:46:04.269Z,102303
2018-09-25T07:47:09.771Z,102300
2018-09-25T07:48:15.162Z,102297
2018-09-25T07:49:21.012Z,102300
2018-09-25T07:50:26.444Z,102294
2018-09-25T07:51:32.124Z,102309
2018-09-25T07:52:37.283Z,102317
2018-09-25T07:53:42.432Z,102312
2018-09-25T07:54:47.766Z,102309
2018-09-25T07:55:53.263Z,102317
2018-09-25T07:56:58.769Z,102315
2018-09-25T07:58:03.981Z,102309
2018-09-25T07:59:09.170Z,102306
2018-09-25T08:00:14.597Z,102315
2018-09-25T08:01:19.998Z,102312
2018-09-25T08:02:25.446Z,102312
2018-09-25T08:03:31.004Z,102323
2018-09-25T08:04:36.044Z,102320
2018-09-25T08:05:41.205Z,102315
2018-09-25T08:06:46.732Z,102312
2018-09-25T08:07:51.884Z,102321
2018-09-25T08:08:56.607Z,102309
2018-09-25T08:10:01.972Z,102321
2018-09-25T08:11:06.693Z,102321
2018-09-25T08:12:12.473Z,102323
2018-09-25T08:13:18.248Z,102318
2018-09-25T08:14:23.676Z,102306
2018-09-25T08:15:29.346Z,102318
2018-09-25T08:16:35.335Z,102323
2018-09-25T08:17:40.544Z,102318
2018-09-25T08:18:46.323Z,102323
2018-09-25T08:19:51.806Z,102320
2018-09-25T08:20:56.959Z,102315
2018-09-25T08:22:02.734Z,102323
2018-09-25T08:23:07.885Z,102329
2018-09-25T08:24:13.379Z,102323
2018-09-25T08:25:19.117Z,102334
2018-09-25T08:26:23.793Z,102323
2018-09-25T08:27:29.628Z,102326
2018-09-25T08:28:34.812Z,102332
2018-09-25T08:29:39.835Z,102334
2018-09-25T08:30:45.921Z,102340
2018-09-25T08:31:51.532Z,102334
2018-09-25T08:32:56.691Z,102337
2018-09-25T08:34:02.166Z,102332
2018-09-25T08:35:07.539Z,102340
2018-09-25T08:36:13.236Z,102334
2018-09-25T08:37:19.073Z,102340
2018-09-25T08:38:24.041Z,102340
2018-09-25T08:39:30.903Z,102340
2018-09-25T08:40:36.802Z,102346
2018-09-25T08:41:41.726Z,102352
2018-09-25T08:42:47.302Z,102346
2018-09-25T08:43:52.456Z,102346
2018-09-25T08:44:58.281Z,102346
2018-09-25T08:46:04.138Z,102346
2018-09-25T08:47:09.293Z,102358
2018-09-25T08:48:14.342Z,102352
2018-09-25T08:49:20.125Z,102349
2018-09-25T08:50:25.581Z,102349
2018-09-25T08:51:31.159Z,102355
2018-09-25T08:52:36.314Z,102358
2018-09-25T08:53:41.272Z,102352
2018-09-25T08:54:47.032Z,102352
2018-09-25T08:55:52.535Z,102364
2018-09-25T08:56:57.951Z,102355
2018-09-25T08:58:03.646Z,102346
2018-09-25T08:59:08.237Z,102352
2018-09-25T09:00:13.394Z,102352
2018-09-25T09:01:18.230Z,102355
2018-09-25T09:02:23.669Z,102361
2018-09-25T09:03:29.450Z,102364
2018-09-25T09:04:34.601Z,102364
2018-09-25T09:05:40.089Z,102369
2018-09-25T09:06:45.564Z,102361
2018-09-25T09:07:50.722Z,102360
2018-09-25T09:08:55.308Z,102372
2018-09-25T09:10:00.489Z,102369
2018-09-25T09:11:05.380Z,102366
2018-09-25T09:12:10.883Z,102364
2018-09-25T09:13:16.384Z,102358
2018-09-25T09:14:21.620Z,102363
2018-09-25T09:15:26.911Z,102358
2018-09-25T09:16:32.468Z,102355
2018-09-25T09:17:37.913Z,102364
2018-09-25T09:18:43.458Z,102358
2018-09-25T09:19:47.944Z,102364
2018-09-25T09:20:53.691Z,102358
2018-09-25T09:21:59.367Z,102361
2018-09-25T09:23:04.555Z,102366
2018-09-25T09:24:09.440Z,102360
2018-09-25T09:25:15.051Z,102357
2018-09-25T09:26:20.900Z,102354
2018-09-25T09:27:26.529Z,102363
2018-09-25T09:28:31.674Z,102360
2018-09-25T09:29:36.940Z,102354
2018-09-25T09:30:42.504Z,102351
2018-09-25T09:31:47.983Z,102354
2018-09-25T09:32:52.970Z,102357
2018-09-25T09:33:58.887Z,102363
2018-09-25T09:35:03.762Z,102366
2018-09-25T09:36:09.115Z,102369
2018-09-25T09:37:14.254Z,102368
2018-09-25T09:38:19.755Z,102360
2018-09-25T09:40:45.131Z,102374
2018-09-25T09:41:50.804Z,102365
2018-09-25T09:42:56.959Z,102374
2018-09-25T09:44:00.769Z,102362
2018-09-25T09:45:06.255Z,102362
2018-09-25T09:46:12.227Z,102362
2018-09-25T09:47:17.415Z,102362
2018-09-25T09:48:22.849Z,102362
2018-09-25T09:49:28.487Z,102365
2018-09-25T09:50:34.463Z,102362
2018-09-25T09:51:40.075Z,102374
2018-09-25T09:52:45.546Z,102371
2018-09-25T09:53:51.178Z,102368
2018-09-25T09:54:56.893Z,102371
2018-09-25T09:56:01.811Z,102368
2018-09-25T09:57:06.913Z,102371
2018-09-25T09:58:12.624Z,102365
2018-09-25T09:59:18.066Z,102374
2018-09-25T10:00:22.367Z,102371
2018-09-25T10:01:27.595Z,102368
2018-09-25T10:02:32.739Z,102365
2018-09-25T10:03:38.159Z,102359
2018-09-25T10:04:43.622Z,102365
2018-09-25T10:05:48.920Z,102362
2018-09-25T10:06:55.233Z,102365
2018-09-25T10:08:01.075Z,102362
2018-09-25T10:09:05.970Z,102365
2018-09-25T10:10:11.405Z,102362
2018-09-25T10:11:16.555Z,102353
2018-09-25T10:12:21.530Z,102353
2018-09-25T10:13:27.682Z,102353
2018-09-25T10:14:32.555Z,102359
2018-09-25T10:15:38.014Z,102356
2018-09-25T10:16:43.538Z,102356
2018-09-25T10:17:48.694Z,102359
2018-09-25T10:18:54.404Z,102359
2018-09-25T10:19:59.568Z,102356
2018-09-25T10:21:04.714Z,102356
2018-09-25T10:22:09.948Z,102359
2018-09-25T10:23:15.397Z,102356
2018-09-25T10:24:20.546Z,102359
2018-09-25T10:25:25.707Z,102365
2018-09-25T10:26:31.144Z,102347
2018-09-25T10:27:36.049Z,102347
2018-09-25T10:28:41.483Z,102347
2018-09-25T10:29:46.624Z,102342
2018-09-25T10:30:51.473Z,102342
2018-09-25T10:31:56.920Z,102348
2018-09-25T10:33:02.264Z,102342
2018-09-25T10:34:07.764Z,102347
2018-09-25T10:35:13.186Z,102350
2018-09-25T10:36:18.381Z,102347
2018-09-25T10:37:23.841Z,102359
2018-09-25T10:38:28.405Z,102356
2018-09-25T10:39:33.997Z,102350
2018-09-25T10:40:39.528Z,102353
2018-09-25T10:41:45.082Z,102350
2018-09-25T10:42:50.863Z,102350
2018-09-25T10:43:55.245Z,102359
2018-09-25T10:44:59.887Z,102353
2018-09-25T10:46:05.327Z,102344
2018-09-25T10:47:10.774Z,102348
2018-09-25T10:48:15.911Z,102347
2018-09-25T10:49:21.025Z,102359
2018-09-25T10:50:26.200Z,102365
2018-09-25T10:51:31.984Z,102365
2018-09-25T10:52:36.900Z,102368
2018-09-25T10:53:42.064Z,102371
2018-09-25T10:54:47.506Z,102347
2018-09-25T10:55:53.433Z,102359
2018-09-25T10:56:59.530Z,102353
2018-09-25T10:58:05.241Z,102356
2018-09-25T10:59:10.392Z,102350
2018-09-25T11:00:15.326Z,102348
2018-09-25T11:01:20.749Z,102359
2018-09-25T11:02:25.937Z,102350
2018-09-25T11:03:32.033Z,102339
2018-09-25T11:04:37.575Z,102359
2018-09-25T11:05:42.748Z,102350
2018-09-25T11:06:48.629Z,102362
2018-09-25T11:07:53.556Z,102353
2018-09-25T11:08:58.459Z,102350
2018-09-25T11:10:03.683Z,102350
2018-09-25T11:11:09.286Z,102353
2018-09-25T11:12:14.663Z,102341
2018-09-25T11:13:19.793Z,102350
2018-09-25T11:14:25.243Z,102341
2018-09-25T11:15:30.579Z,102353
2018-09-25T11:16:35.456Z,102350
2018-09-25T11:17:41.207Z,102344
2018-09-25T11:18:46.919Z,102344
2018-09-25T11:19:52.353Z,102341
2018-09-25T11:20:57.499Z,102341
2018-09-25T11:22:03.271Z,102344
2018-09-25T11:23:08.624Z,102336
2018-09-25T11:24:13.764Z,102333
2018-09-25T11:25:19.117Z,102336
2018-09-25T11:26:24.410Z,102350
2018-09-25T11:27:29.888Z,102333
2018-09-25T11:28:34.833Z,102341
2018-09-25T11:29:40.450Z,102347
2018-09-25T11:30:45.863Z,102347
2018-09-25T11:31:51.304Z,102347
2018-09-25T11:32:56.464Z,102356
2018-09-25T11:34:02.090Z,102344
2018-09-25T11:35:07.058Z,102362
2018-09-25T11:36:12.366Z,102347
2018-09-25T11:37:17.880Z,102350
2018-09-25T11:38:23.049Z,102350
2018-09-25T11:39:28.622Z,102350
2018-09-25T11:40:34.131Z,102347
2018-09-25T11:41:39.715Z,102347
2018-09-25T11:42:44.609Z,102350
2018-09-25T11:43:49.852Z,102353
2018-09-25T11:44:55.010Z,102359
2018-09-25T11:46:00.837Z,102353
2018-09-25T11:47:06.624Z,102364
2018-09-25T11:48:11.877Z,102370
2018-09-25T11:49:17.392Z,102364
2018-09-25T11:50:22.589Z,102359
2018-09-25T11:51:28.033Z,102367
2018-09-25T11:52:32.895Z,102361
2018-09-25T11:53:38.337Z,102356
2018-09-25T11:54:44.165Z,102356
2018-09-25T11:55:49.607Z,102356
2018-09-25T11:56:54.495Z,102364
2018-09-25T11:57:59.334Z,102361
2018-09-25T11:59:04.522Z,102356
2018-09-25T12:00:09.794Z,102353
2018-09-25T12:01:14.688Z,102356
2018-09-25T12:02:19.943Z,102353
2018-09-25T12:03:40.001Z,102353
2018-09-25T12:04:45.163Z,102344
2018-09-25T12:05:50.590Z,102344
2018-09-25T12:06:56.397Z,102356
2018-09-25T12:08:01.988Z,102344
2018-09-25T12:09:06.658Z,102342
2018-09-25T12:10:12.264Z,102339
2018-09-25T12:11:17.170Z,102328
2018-09-25T12:12:22.111Z,102336
2018-09-25T12:13:28.038Z,102322
2018-09-25T12:14:33.332Z,102331
2018-09-25T12:15:38.469Z,102336
2018-09-25T12:16:42.763Z,102331
2018-09-25T12:17:48.228Z,102333
2018-09-25T12:18:53.440Z,102333
2018-09-25T12:19:58.218Z,102339
2018-09-25T12:21:04.416Z,102339
2018-09-25T12:22:09.927Z,102336
2018-09-25T12:23:15.210Z,102336
2018-09-25T12:24:20.969Z,102328
2018-09-25T12:25:27.376Z,102333
2018-09-25T12:26:32.619Z,102333
2018-09-25T12:27:38.309Z,102331
2018-09-25T12:28:43.740Z,102322
2018-09-25T12:29:48.913Z,102316
2018-09-25T12:30:54.136Z,102311
2018-09-25T12:31:59.284Z,102311
2018-09-25T12:33:04.863Z,102308
2018-09-25T12:34:10.881Z,102316
2018-09-25T12:35:15.815Z,102319
2018-09-25T12:36:20.954Z,102319
2018-09-25T12:37:41.456Z,102325
2018-09-25T12:38:46.612Z,102314
2018-09-25T12:39:52.339Z,102308
2018-09-25T12:40:57.570Z,102311
2018-09-25T12:42:02.767Z,102314
2018-09-25T12:43:08.458Z,102308
2018-09-25T12:44:13.380Z,102305
2018-09-25T12:45:18.347Z,102305
2018-09-25T12:46:24.138Z,102308
2018-09-25T12:47:29.310Z,102311
2018-09-25T12:48:34.921Z,102305
2018-09-25T12:49:39.511Z,102314
2018-09-25T12:50:44.938Z,102316
2018-09-25T12:51:50.684Z,102319
2018-09-25T12:52:55.614Z,102319
2018-09-25T12:54:00.767Z,102305
2018-09-25T12:55:06.173Z,102310
2018-09-25T12:56:11.393Z,102299
2018-09-25T12:57:16.544Z,102308
2018-09-25T12:58:21.414Z,102305
2018-09-25T12:59:26.554Z,102319
2018-09-25T13:00:32.340Z,102316
2018-09-25T13:01:37.284Z,102296
2018-09-25T13:02:42.423Z,102302
2018-09-25T13:03:47.618Z,102299
2018-09-25T13:04:53.102Z,102299
2018-09-25T13:05:58.248Z,102299
2018-09-25T13:07:04.290Z,102293
2018-09-25T13:08:09.729Z,102290
2018-09-25T13:09:14.613Z,102284
2018-09-25T13:10:20.361Z,102270
2018-09-25T13:11:24.981Z,102279
2018-09-25T13:12:31.075Z,102284
2018-09-25T13:13:36.499Z,102276
2018-09-25T13:14:41.650Z,102282
2018-09-25T13:15:47.619Z,102273
2018-09-25T13:16:53.270Z,102276
2018-09-25T13:17:58.205Z,102276
2018-09-25T13:19:03.048Z,102276
2018-09-25T13:20:08.291Z,102270
2018-09-25T13:21:13.779Z,102276
2018-09-25T13:22:19.463Z,102276
2018-09-25T13:23:24.916Z,102270
2018-09-25T13:24:30.774Z,102270
2018-09-25T13:25:36.289Z,102258
2018-09-25T13:26:41.717Z,102252
2018-09-25T13:27:47.122Z,102264
2018-09-25T13:28:52.274Z,102252
2018-09-25T13:29:57.442Z,102238
2018-09-25T13:31:02.571Z,102250
2018-09-25T13:32:07.726Z,102247
2018-09-25T13:33:12.663Z,102247
2018-09-25T13:34:18.227Z,102252
2018-09-25T13:35:23.181Z,102235
2018-09-25T13:36:28.496Z,102247
2018-09-25T13:37:33.356Z,102244
2018-09-25T13:38:38.263Z,102247
2018-09-25T13:39:43.137Z,102232